Time;durP1;ratioP1;P1;durP2;ratioP2;P2;SDS_P1;SDS_P2;PMS_P1;PMS_P2;Temp;Humidity;BMP_temperature;BMP_pressure;BME280_temperature;BME280_humidity;BME280_pressure;Samples;Min_cycle;Max_cycle;Signal;HPM_P1;HPM_P2
2021/08/07 00:00:07;;;;;;;143.33;136.33;;;17.00;99.90;;;;;;6197148;23;20392;-68
2021/08/07 00:02:39;;;;;;;126.07;120.03;;;17.00;99.90;;;;;;6187731;23;20424;-68
2021/08/07 00:05:08;;;;;;;146.47;138.97;;;17.00;99.90;;;;;;6196963;23;20395;-68
2021/08/07 00:07:38;;;;;;;130.37;124.33;;;17.00;99.90;;;;;;6197303;23;20403;-68
2021/08/07 00:10:08;;;;;;;116.37;111.20;;;16.90;99.90;;;;;;6197370;23;20926;-68
2021/08/07 00:12:37;;;;;;;185.30;176.73;;;16.90;99.90;;;;;;6196982;23;20509;-68
2021/08/07 00:15:07;;;;;;;161.87;154.43;;;16.90;99.90;;;;;;6160575;23;20412;-68
2021/08/07 00:17:36;;;;;;;673.03;629.47;;;16.90;99.90;;;;;;6196115;23;20399;-68
2021/08/07 00:20:04;;;;;;;147.13;139.57;;;16.90;99.90;;;;;;6160596;23;20893;-68
2021/08/07 00:22:32;;;;;;;690.55;647.40;;;16.90;99.90;;;;;;6186601;23;20474;-68
2021/08/07 00:25:05;;;;;;;217.70;207.50;;;16.90;99.90;;;;;;6196796;23;20169;-68
2021/08/07 00:27:33;;;;;;;292.63;277.87;;;16.80;99.90;;;;;;6197242;23;20835;-68
2021/08/07 00:30:02;;;;;;;286.93;273.23;;;16.80;99.90;;;;;;6197032;23;20396;-68
2021/08/07 00:32:30;;;;;;;313.87;298.77;;;16.80;99.90;;;;;;6196333;23;20432;-68
2021/08/07 00:34:59;;;;;;;260.83;248.67;;;16.80;99.90;;;;;;6160817;23;20485;-68
2021/08/07 00:37:28;;;;;;;242.43;230.87;;;16.80;99.90;;;;;;6160339;23;20415;-68
2021/08/07 00:40:03;;;;;;;242.73;231.60;;;16.80;99.90;;;;;;6160501;23;20503;-68
2021/08/07 00:42:31;;;;;;;239.30;228.43;;;16.70;99.90;;;;;;6160563;23;20460;-68
2021/08/07 00:45:09;;;;;;;265.37;252.30;;;16.70;99.90;;;;;;6160888;23;20465;-68
2021/08/07 00:47:40;;;;;;;196.07;186.53;;;16.70;99.90;;;;;;6160421;23;20415;-68
2021/08/07 00:50:13;;;;;;;572.30;539.22;;;16.70;99.90;;;;;;6159845;23;20415;-68
2021/08/07 00:52:43;;;;;;;171.77;164.10;;;16.60;99.90;;;;;;6160499;23;20204;-68
2021/08/07 00:55:20;;;;;;;396.17;372.93;;;16.70;99.90;;;;;;6160424;23;20407;-68
2021/08/07 00:57:49;;;;;;;337.20;319.33;;;16.60;99.90;;;;;;6160617;23;20416;-68
2021/08/07 01:00:21;;;;;;;330.83;313.17;;;16.60;99.90;;;;;;6160323;23;20402;-68
2021/08/07 01:03:00;;;;;;;350.87;331.37;;;16.60;99.90;;;;;;6160656;23;20435;-68
2021/08/07 01:05:37;;;;;;;282.70;267.77;;;16.60;99.90;;;;;;6160229;23;20411;-68
2021/08/07 01:08:15;;;;;;;313.67;297.90;;;16.60;99.90;;;;;;6160573;23;20417;-68
2021/08/07 01:10:53;;;;;;;345.43;327.20;;;16.60;99.90;;;;;;6160167;23;20412;-68
2021/08/07 01:13:26;;;;;;;322.90;305.97;;;16.60;99.90;;;;;;6160058;23;20440;-68
2021/08/07 01:16:06;;;;;;;319.27;303.00;;;16.50;99.90;;;;;;6160183;23;20408;-68
2021/08/07 01:18:38;;;;;;;312.10;296.63;;;16.50;99.90;;;;;;6160196;23;20895;-68
2021/08/07 01:21:11;;;;;;;329.40;312.30;;;16.50;99.90;;;;;;6159988;23;20400;-68
2021/08/07 01:23:57;;;;;;;327.30;310.33;;;16.50;99.90;;;;;;6160733;23;20386;-68
2021/08/07 01:26:33;;;;;;;1158.45;999.90;;;16.50;99.90;;;;;;6158841;23;20415;-68
2021/08/07 01:29:16;;;;;;;348.20;328.90;;;16.60;99.90;;;;;;6160395;23;20175;-68
2021/08/07 01:31:51;;;;;;;1551.88;999.90;;;16.50;99.90;;;;;;6158671;23;20838;-68
2021/08/07 01:34:26;;;;;;;411.93;388.03;;;16.60;99.90;;;;;;6159857;23;20188;-68
2021/08/07 01:36:55;;;;;;;549.10;515.10;;;16.60;99.90;;;;;;6159958;23;20411;-68
2021/08/07 01:39:44;;;;;;;510.33;478.47;;;16.50;99.90;;;;;;6159965;23;20463;-68
2021/08/07 01:42:15;;;;;;;416.30;393.07;;;16.50;99.90;;;;;;6155087;23;20527;-68
2021/08/07 01:44:46;;;;;;;462.03;436.67;;;16.50;99.90;;;;;;6154980;23;20423;-68
2021/08/07 01:47:22;;;;;;;456.67;429.63;;;16.50;99.90;;;;;;6155070;23;20478;-68
2021/08/07 01:49:59;;;;;;;353.07;334.23;;;16.50;99.90;;;;;;6154852;23;20431;-68
2021/08/07 01:52:30;;;;;;;348.57;330.33;;;16.50;99.90;;;;;;6154733;23;20431;-68
2021/08/07 01:55:07;;;;;;;645.30;600.22;;;16.50;99.90;;;;;;6154462;23;20444;-68
2021/08/07 01:57:46;;;;;;;453.20;429.10;;;16.50;99.90;;;;;;6155196;23;20199;-68
2021/08/07 02:00:21;;;;;;;747.33;690.60;;;16.50;99.90;;;;;;6154671;23;20479;-68
2021/08/07 02:02:53;;;;;;;1110.60;676.00;;;16.50;99.90;;;;;;6154646;23;20193;-68
2021/08/07 02:05:27;;;;;;;855.77;728.83;;;16.50;99.90;;;;;;6154625;23;20419;-68
2021/08/07 02:07:59;;;;;;;890.30;767.00;;;16.50;99.90;;;;;;6154375;23;20774;-68
2021/08/07 02:10:32;;;;;;;795.37;712.90;;;16.50;99.90;;;;;;6154841;23;20472;-68
2021/08/07 02:13:01;;;;;;;961.53;818.40;;;16.50;99.90;;;;;;6154229;23;20435;-68
2021/08/07 02:15:33;;;;;;;855.87;743.93;;;16.40;99.90;;;;;;6154541;23;20409;-68
2021/08/07 02:18:09;;;;;;;783.87;704.80;;;16.40;99.90;;;;;;6154453;23;20487;-68
2021/08/07 02:20:38;;;;;;;765.07;685.90;;;16.40;99.90;;;;;;6154622;23;20785;-68
2021/08/07 02:23:10;;;;;;;818.27;732.30;;;16.40;99.90;;;;;;6154288;23;20440;-68
2021/08/07 02:25:44;;;;;;;1999.90;999.90;;;16.40;99.90;;;;;;6153489;23;20549;-68
2021/08/07 02:28:21;;;;;;;834.43;745.23;;;16.40;99.90;;;;;;6154886;23;20981;-68
2021/08/07 02:30:52;;;;;;;1999.90;999.90;;;16.40;99.90;;;;;;6164973;23;20412;-68
2021/08/07 02:33:24;;;;;;;830.37;707.07;;;16.50;99.90;;;;;;6154899;23;20189;-68
2021/08/07 02:35:55;;;;;;;1314.97;904.43;;;16.50;99.90;;;;;;6154440;23;20413;-68
2021/08/07 02:38:26;;;;;;;1024.13;787.17;;;16.50;99.90;;;;;;6154334;23;20443;-68
2021/08/07 02:40:56;;;;;;;1065.40;804.63;;;16.40;99.90;;;;;;6154442;23;20919;-68
2021/08/07 02:43:27;;;;;;;922.13;784.77;;;16.40;99.90;;;;;;6155466;23;20495;-68
2021/08/07 02:45:58;;;;;;;954.80;787.83;;;16.40;99.90;;;;;;6154348;23;20455;-68
2021/08/07 02:48:31;;;;;;;1094.97;816.27;;;16.40;99.90;;;;;;6154386;23;20420;-68
2021/08/07 02:51:02;;;;;;;1342.10;868.03;;;16.30;99.90;;;;;;6154276;23;20915;-68
2021/08/07 02:53:38;;;;;;;1393.67;874.37;;;16.30;99.90;;;;;;6154182;23;20491;-68
2021/08/07 02:56:07;;;;;;;1999.90;999.90;;;16.30;99.90;;;;;;6152931;23;20403;-68
2021/08/07 02:58:36;;;;;;;1796.63;931.90;;;16.40;99.90;;;;;;6154275;23;20177;-68
2021/08/07 03:01:06;;;;;;;1999.90;987.60;;;16.40;99.90;;;;;;6154665;23;20943;-68
2021/08/07 03:03:34;;;;;;;1999.90;963.77;;;16.40;99.90;;;;;;6154215;23;20432;-68
2021/08/07 03:06:04;;;;;;;1999.90;934.93;;;16.30;99.90;;;;;;6154260;23;20420;-68
2021/08/07 03:08:36;;;;;;;1999.90;954.10;;;16.30;99.90;;;;;;6154278;23;20412;-68
2021/08/07 03:11:05;;;;;;;1999.90;937.73;;;16.30;99.90;;;;;;6154265;23;20425;-68
2021/08/07 03:13:34;;;;;;;1973.13;917.50;;;16.30;99.90;;;;;;6154067;23;20417;-68
2021/08/07 03:16:02;;;;;;;1965.47;941.97;;;16.30;99.90;;;;;;6154234;23;20972;-68
2021/08/07 03:18:39;;;;;;;1908.57;936.23;;;16.30;99.90;;;;;;6154462;23;20406;-68
2021/08/07 03:21:08;;;;;;;1879.63;900.40;;;16.30;99.90;;;;;;6154178;23;20428;-68
2021/08/07 03:23:51;;;;;;;1946.03;896.33;;;16.30;99.90;;;;;;6154295;23;20904;-68
2021/08/07 03:26:20;;;;;;;1999.90;999.90;;;16.30;99.90;;;;;;6164583;23;20401;-68
2021/08/07 03:28:49;;;;;;;1930.17;902.93;;;16.30;99.90;;;;;;6156295;23;20179;-68
2021/08/07 03:31:21;;;;;;;1999.90;999.90;;;16.30;99.90;;;;;;6154857;23;20748;-68
2021/08/07 03:33:51;;;;;;;1930.43;942.93;;;16.40;99.90;;;;;;6156147;23;20307;-68
2021/08/07 03:36:19;;;;;;;1999.90;967.13;;;16.40;99.90;;;;;;6156212;23;20443;-68
2021/08/07 03:38:54;;;;;;;1994.03;895.53;;;16.40;99.90;;;;;;6156239;23;20451;-68
2021/08/07 03:41:22;;;;;;;1998.37;935.70;;;16.30;99.90;;;;;;6176146;23;20402;-68
2021/08/07 03:43:52;;;;;;;1602.60;866.60;;;16.30;99.90;;;;;;6161070;23;20390;-68
2021/08/07 03:46:22;;;;;;;1393.70;849.87;;;16.30;99.90;;;;;;6161006;23;20501;-68
2021/08/07 03:48:53;;;;;;;1550.43;845.03;;;16.30;99.90;;;;;;6160820;23;20416;-68
2021/08/07 03:51:25;;;;;;;1611.90;884.50;;;16.30;99.90;;;;;;6185717;23;20489;-68
2021/08/07 03:53:53;;;;;;;1518.07;838.80;;;16.30;99.90;;;;;;6197463;23;20433;-68
2021/08/07 03:56:29;;;;;;;1999.90;999.90;;;16.30;99.90;;;;;;6159787;23;20686;-68
2021/08/07 03:59:00;;;;;;;1038.30;746.40;;;16.30;99.90;;;;;;6160954;23;20168;-68
2021/08/07 04:01:28;;;;;;;1999.90;999.90;;;16.30;99.90;;;;;;6159542;23;20743;-68
2021/08/07 04:04:01;;;;;;;1344.47;841.13;;;16.40;99.90;;;;;;6160789;23;20215;-68
2021/08/07 04:06:36;;;;;;;1464.63;841.17;;;16.40;99.90;;;;;;6160853;23;20411;-68
2021/08/07 04:09:07;;;;;;;1675.27;886.37;;;16.40;99.90;;;;;;6160524;23;20412;-68
2021/08/07 04:11:35;;;;;;;1500.77;862.60;;;16.30;99.90;;;;;;6160663;23;20442;-68
2021/08/07 04:14:06;;;;;;;1477.23;854.23;;;16.30;99.90;;;;;;6160801;23;20408;-68
2021/08/07 04:16:35;;;;;;;1418.77;853.50;;;16.40;99.90;;;;;;6160684;23;20494;-68
2021/08/07 04:19:34;;;;;;;1399.63;818.13;;;16.30;99.90;;;;;;6178661;23;20387;-68
2021/08/07 04:22:11;;;;;;;1407.00;850.13;;;16.30;99.90;;;;;;6160599;23;20427;-68
2021/08/07 04:24:43;;;;;;;1380.77;848.57;;;16.30;99.90;;;;;;6160936;23;20412;-68
2021/08/07 04:27:14;;;;;;;1999.90;999.90;;;16.30;99.90;;;;;;6159431;23;20742;-68
2021/08/07 04:29:46;;;;;;;1570.03;901.23;;;16.40;99.90;;;;;;6161014;23;20223;-68
2021/08/07 04:32:14;;;;;;;1999.90;999.90;;;16.40;99.90;;;;;;6159113;23;20482;-68
2021/08/07 04:34:45;;;;;;;1972.43;924.73;;;16.40;99.90;;;;;;6160352;23;20533;-68
2021/08/07 04:37:16;;;;;;;1999.90;956.03;;;16.40;99.90;;;;;;6161250;23;20412;-68
2021/08/07 04:39:45;;;;;;;1999.90;999.90;;;16.40;99.90;;;;;;6160016;23;20496;-68
2021/08/07 04:42:17;;;;;;;1999.90;999.90;;;16.40;99.90;;;;;;6155478;23;20448;-68
2021/08/07 04:44:45;;;;;;;1999.90;999.90;;;16.30;99.90;;;;;;6167006;23;20397;-68
2021/08/07 04:47:14;;;;;;;1999.90;999.90;;;16.30;99.90;;;;;;6156485;23;20395;-68
2021/08/07 04:49:44;;;;;;;1999.90;992.23;;;16.30;99.90;;;;;;6155500;23;20762;-68
2021/08/07 04:52:12;;;;;;;1999.90;999.23;;;16.30;99.90;;;;;;6155441;23;20447;-68
2021/08/07 04:54:40;;;;;;;1999.90;999.90;;;16.30;99.90;;;;;;6166550;23;20523;-68
2021/08/07 04:57:08;;;;;;;1999.90;999.90;;;16.30;99.90;;;;;;6155336;23;20444;-68
2021/08/07 04:59:37;;;;;;;1999.90;994.43;;;16.30;99.90;;;;;;6155241;23;20421;-68
2021/08/07 05:02:05;;;;;;;1999.90;999.90;;;16.30;99.90;;;;;;6154015;23;20520;-68
2021/08/07 05:04:33;;;;;;;1999.90;980.13;;;16.40;99.90;;;;;;6155312;23;20200;-68
2021/08/07 05:07:03;;;;;;;1999.90;999.90;;;16.40;99.90;;;;;;6165733;23;20391;-68
2021/08/07 05:09:31;;;;;;;1999.90;996.13;;;16.50;99.90;;;;;;6156271;23;20181;-68
2021/08/07 05:12:14;;;;;;;1999.90;999.90;;;16.50;99.90;;;;;;6155208;23;20914;-68
2021/08/07 05:14:44;;;;;;;1999.90;999.90;;;16.50;99.90;;;;;;6155250;23;20436;-68
2021/08/07 05:17:16;;;;;;;1999.90;999.90;;;16.50;99.90;;;;;;6155504;23;20944;-68
2021/08/07 05:19:44;;;;;;;1999.90;991.37;;;16.50;99.90;;;;;;6155081;23;20419;-68
2021/08/07 05:22:14;;;;;;;1999.90;999.90;;;16.50;99.90;;;;;;6155227;23;20455;-68
2021/08/07 05:24:47;;;;;;;1999.90;990.53;;;16.50;99.90;;;;;;6155299;23;20766;-67
2021/08/07 05:27:16;;;;;;;1999.90;976.40;;;16.50;99.90;;;;;;6155264;23;20827;-68
2021/08/07 05:29:45;;;;;;;1999.90;965.03;;;16.50;99.90;;;;;;6155104;23;20420;-67
2021/08/07 05:32:13;;;;;;;1999.90;978.50;;;16.60;99.90;;;;;;6166407;23;20456;-68
2021/08/07 05:34:41;;;;;;;1999.90;970.57;;;16.50;99.90;;;;;;6155071;23;20419;-67
2021/08/07 05:37:10;;;;;;;1999.90;962.70;;;16.50;99.90;;;;;;6155074;23;20474;-67
2021/08/07 05:39:39;;;;;;;1999.90;999.90;;;16.60;99.90;;;;;;6153845;23;20420;-67
2021/08/07 05:42:08;;;;;;;1999.90;945.67;;;16.70;99.90;;;;;;6194372;23;20271;-68
2021/08/07 05:44:36;;;;;;;1975.10;912.17;;;16.70;99.90;;;;;;6160908;23;20455;-68
2021/08/07 05:47:04;;;;;;;1999.90;921.90;;;16.70;99.90;;;;;;6159291;23;20437;-68
2021/08/07 05:49:32;;;;;;;1999.90;994.10;;;16.70;99.90;;;;;;6159639;23;20446;-68
2021/08/07 05:52:02;;;;;;;1999.90;983.87;;;16.70;99.90;;;;;;6196068;23;20419;-68
2021/08/07 05:54:31;;;;;;;1999.90;950.43;;;16.70;99.90;;;;;;6159818;23;20415;-68
2021/08/07 05:57:01;;;;;;;1999.90;999.90;;;16.80;99.90;;;;;;6159656;23;20440;-68
2021/08/07 05:59:31;;;;;;;1999.90;976.67;;;16.80;99.90;;;;;;6160224;23;20431;-68
2021/08/07 06:01:59;;;;;;;1999.90;995.70;;;16.80;99.90;;;;;;6161010;23;20443;-67
2021/08/07 06:04:27;;;;;;;1999.90;968.40;;;16.80;99.90;;;;;;6197220;23;20392;-67
2021/08/07 06:06:59;;;;;;;1999.90;995.47;;;16.80;99.90;;;;;;6161576;23;20403;-67
2021/08/07 06:09:27;;;;;;;1999.90;976.57;;;16.90;99.90;;;;;;6161101;23;20414;-67
2021/08/07 06:11:55;;;;;;;1999.90;999.90;;;16.90;99.90;;;;;;6196084;23;20409;-68
2021/08/07 06:14:26;;;;;;;1724.83;876.73;;;17.00;99.90;;;;;;6197232;23;20658;-67
2021/08/07 06:16:55;;;;;;;1999.90;999.90;;;17.00;99.90;;;;;;6158121;23;20747;-67
2021/08/07 06:19:24;;;;;;;1954.57;952.67;;;17.10;99.90;;;;;;6159465;23;20215;-67
2021/08/07 06:21:53;;;;;;;1769.47;875.83;;;17.10;99.90;;;;;;6159396;23;20471;-67
2021/08/07 06:24:21;;;;;;;1772.03;884.67;;;17.10;99.90;;;;;;6159287;23;20419;-67
2021/08/07 06:26:49;;;;;;;1677.77;878.97;;;17.10;99.90;;;;;;6159956;23;20461;-67
2021/08/07 06:29:17;;;;;;;1671.63;882.47;;;17.10;99.90;;;;;;6196134;23;20486;-67
2021/08/07 06:31:47;;;;;;;1804.10;892.90;;;17.10;99.90;;;;;;6159243;23;20444;-67
2021/08/07 06:34:15;;;;;;;1863.60;919.03;;;17.10;99.90;;;;;;6159434;23;20486;-68
2021/08/07 06:36:43;;;;;;;1633.37;876.97;;;17.10;99.90;;;;;;6195974;23;20510;-68
2021/08/07 06:39:12;;;;;;;1838.67;927.53;;;17.10;99.90;;;;;;6159384;23;20788;-68
2021/08/07 06:41:41;;;;;;;1999.90;999.90;;;17.10;99.90;;;;;;6153271;23;20428;-68
2021/08/07 06:44:21;;;;;;;1999.90;926.60;;;17.10;99.90;;;;;;6154755;23;20165;-67
2021/08/07 06:46:56;;;;;;;1999.90;999.90;;;17.20;99.90;;;;;;6153101;23;20900;-67
2021/08/07 06:49:24;;;;;;;1930.37;871.83;;;17.30;99.90;;;;;;6165734;23;20165;-67
2021/08/07 06:51:53;;;;;;;1999.90;931.70;;;17.30;99.90;;;;;;6154389;23;20498;-68
2021/08/07 06:54:23;;;;;;;1999.90;965.90;;;17.30;99.90;;;;;;6154355;23;20413;-68
2021/08/07 06:56:51;;;;;;;1999.90;940.93;;;17.40;99.90;;;;;;6154268;23;20531;-68
2021/08/07 06:59:20;;;;;;;1999.90;971.50;;;17.50;99.90;;;;;;6165719;23;20432;-68
2021/08/07 07:01:49;;;;;;;1999.90;925.73;;;17.60;99.90;;;;;;6154038;23;20464;-67
2021/08/07 07:04:20;;;;;;;1967.07;905.47;;;17.70;99.90;;;;;;6154625;23;20919;-68
2021/08/07 07:06:48;;;;;;;1755.90;854.90;;;17.90;99.90;;;;;;6154900;23;20421;-67
2021/08/07 07:09:16;;;;;;;1999.90;999.90;;;17.90;99.90;;;;;;6154296;23;20888;-68
2021/08/07 07:11:45;;;;;;;1999.90;999.90;;;18.00;99.90;;;;;;6154161;23;20539;-68
2021/08/07 07:14:14;;;;;;;1999.90;999.90;;;18.00;99.90;;;;;;6154220;23;20762;-68
2021/08/07 07:16:42;;;;;;;1999.90;999.90;;;18.00;99.90;;;;;;6154106;23;20464;-68
2021/08/07 07:19:10;;;;;;;1999.90;999.90;;;18.10;99.90;;;;;;6154190;23;20507;-68
2021/08/07 07:21:40;;;;;;;1999.90;999.90;;;18.30;99.90;;;;;;6153540;23;20412;-68
2021/08/07 07:24:09;;;;;;;1999.90;999.90;;;18.70;99.90;;;;;;6154204;23;20174;-68
2021/08/07 07:26:37;;;;;;;1999.90;999.90;;;18.80;99.90;;;;;;6154288;23;20437;-68
2021/08/07 07:29:09;;;;;;;1999.90;999.83;;;18.90;99.90;;;;;;6153939;23;20409;-68
2021/08/07 07:31:38;;;;;;;1999.90;998.03;;;18.90;99.90;;;;;;6154124;23;20440;-68
2021/08/07 07:34:09;;;;;;;1999.90;999.90;;;18.80;99.90;;;;;;6154493;23;20405;-68
2021/08/07 07:36:37;;;;;;;1999.90;979.73;;;18.80;99.90;;;;;;6165668;23;20432;-68
2021/08/07 07:39:07;;;;;;;1999.90;999.90;;;18.80;99.90;;;;;;6154090;23;20444;-68
2021/08/07 07:41:35;;;;;;;1999.90;980.93;;;18.80;99.90;;;;;;6153852;23;20458;-68
2021/08/07 07:44:04;;;;;;;1999.90;997.80;;;18.80;99.90;;;;;;6154117;23;20412;-68
2021/08/07 07:46:32;;;;;;;1999.90;974.43;;;18.80;99.90;;;;;;6154301;23;20504;-68
2021/08/07 07:49:01;;;;;;;1999.90;999.90;;;18.90;99.90;;;;;;6165259;23;20393;-68
2021/08/07 07:51:30;;;;;;;1999.90;999.90;;;19.10;99.90;;;;;;6152961;23;20876;-67
2021/08/07 07:53:58;;;;;;;1999.90;978.43;;;19.30;99.90;;;;;;6154110;23;20220;-68
2021/08/07 07:56:27;;;;;;;1999.90;999.90;;;19.40;99.90;;;;;;6153265;23;20417;-68
2021/08/07 07:58:56;;;;;;;1247.63;878.73;;;19.50;99.90;;;;;;6154345;23;20181;-68
2021/08/07 08:01:24;;;;;;;1744.87;910.40;;;19.70;99.90;;;;;;6153933;23;20469;-68
2021/08/07 08:03:53;;;;;;;1629.07;911.07;;;19.80;99.90;;;;;;6166011;23;20401;-68
2021/08/07 08:06:21;;;;;;;1999.90;906.13;;;19.90;99.90;;;;;;6153977;23;20491;-68
2021/08/07 08:08:49;;;;;;;1195.50;871.17;;;20.10;99.90;;;;;;6154063;23;20926;-68
2021/08/07 08:11:18;;;;;;;1095.67;854.00;;;20.40;99.90;;;;;;6154034;23;20468;-68
2021/08/07 08:13:48;;;;;;;883.87;733.17;;;20.50;99.90;;;;;;6155309;23;20421;-68
2021/08/07 08:16:16;;;;;;;535.07;498.40;;;20.60;99.90;;;;;;6155739;23;20428;-68
2021/08/07 08:18:44;;;;;;;741.00;659.87;;;20.80;99.90;;;;;;6155769;23;20420;-68
2021/08/07 08:21:12;;;;;;;293.57;278.53;;;20.90;99.90;;;;;;6155996;23;20499;-68
2021/08/07 08:23:41;;;;;;;122.57;117.30;;;21.00;99.90;;;;;;6155843;23;20798;-68
2021/08/07 08:26:09;;;;;;;100.07;95.97;;;21.20;99.90;;;;;;6155675;23;20409;-68
2021/08/07 08:28:37;;;;;;;199.10;189.83;;;21.20;99.90;;;;;;6155701;23;20431;-68
2021/08/07 08:31:07;;;;;;;516.72;473.27;;;21.10;99.90;;;;;;6154450;23;20768;-68
2021/08/07 08:33:35;;;;;;;21.73;20.73;;;21.10;99.90;;;;;;6155580;23;20518;-68
2021/08/07 08:36:05;;;;;;;91.00;87.23;;;21.10;99.90;;;;;;6155596;23;20428;-68
2021/08/07 08:38:33;;;;;;;120.27;114.97;;;21.00;99.90;;;;;;6155774;23;20409;-68
2021/08/07 08:41:02;;;;;;;152.87;145.97;;;21.00;99.90;;;;;;6180814;23;20415;-68
2021/08/07 08:43:33;;;;;;;152.33;145.67;;;21.00;99.90;;;;;;6161009;23;20741;-68
2021/08/07 08:46:02;;;;;;;205.37;195.87;;;21.00;99.90;;;;;;6160449;23;20499;-68
2021/08/07 08:48:33;;;;;;;153.80;147.10;;;21.10;99.90;;;;;;6197030;23;20871;-68
2021/08/07 08:51:05;;;;;;;130.33;124.57;;;21.10;99.90;;;;;;6159874;23;20930;-68
2021/08/07 08:53:33;;;;;;;122.80;117.70;;;21.20;99.90;;;;;;6160338;23;20408;-68
2021/08/07 08:56:02;;;;;;;127.53;122.03;;;21.30;99.90;;;;;;6197701;23;20400;-68
2021/08/07 08:58:35;;;;;;;510.85;473.38;;;21.30;99.90;;;;;;6159174;23;20419;-68
2021/08/07 09:01:05;;;;;;;36.30;34.90;;;21.40;99.90;;;;;;6159995;23;20659;-68
2021/08/07 09:03:35;;;;;;;311.65;294.40;;;21.50;99.90;;;;;;6159491;23;20482;-68
2021/08/07 09:06:06;;;;;;;30.53;29.37;;;21.50;99.90;;;;;;6161467;23;20243;-68
2021/08/07 09:08:34;;;;;;;124.53;118.60;;;21.50;99.90;;;;;;6160106;23;20419;-68
2021/08/07 09:11:13;;;;;;;65.57;63.07;;;21.50;99.90;;;;;;6159972;23;20787;-68
2021/08/07 09:13:42;;;;;;;100.83;96.33;;;21.50;99.90;;;;;;6160395;23;20419;-68
2021/08/07 09:16:11;;;;;;;94.10;89.90;;;21.50;99.90;;;;;;6196166;23;20454;-68
2021/08/07 09:18:41;;;;;;;57.53;55.13;;;21.50;99.90;;;;;;6196332;23;20949;-68
2021/08/07 09:21:14;;;;;;;43.63;41.73;;;21.60;99.90;;;;;;6160091;23;20742;-68
2021/08/07 09:23:50;;;;;;;64.13;61.53;;;21.60;99.90;;;;;;6159865;23;20442;-68
2021/08/07 09:26:22;;;;;;;127.57;121.70;;;21.60;99.90;;;;;;6160036;23;20407;-68
2021/08/07 09:28:59;;;;;;;23.47;22.57;;;21.70;99.90;;;;;;6160024;23;20483;-68
2021/08/07 09:31:58;;;;;;;84.22;80.78;;;21.70;99.90;;;;;;6159659;23;20419;-68
2021/08/07 09:34:31;;;;;;;13.40;12.70;;;21.70;99.90;;;;;;6160040;23;20616;-68
2021/08/07 09:37:02;;;;;;;67.80;64.33;;;21.70;99.90;;;;;;6159792;23;20436;-68
2021/08/07 09:39:37;;;;;;;46.07;44.20;;;21.70;99.90;;;;;;6160591;23;20541;-68
2021/08/07 09:42:09;;;;;;;49.97;47.77;;;21.70;99.90;;;;;;6155467;23;20527;-68
2021/08/07 09:44:38;;;;;;;43.63;41.67;;;21.80;99.90;;;;;;6154879;23;20426;-68
2021/08/07 09:47:09;;;;;;;21.33;20.43;;;21.80;99.90;;;;;;6154983;23;20500;-68
2021/08/07 09:49:43;;;;;;;25.13;24.10;;;21.90;99.90;;;;;;6154943;23;20495;-68
2021/08/07 09:52:13;;;;;;;58.50;56.10;;;22.00;99.90;;;;;;6154408;23;20436;-68
2021/08/07 09:54:43;;;;;;;30.97;29.80;;;22.00;99.90;;;;;;6154758;23;20408;-68
2021/08/07 09:57:24;;;;;;;57.97;55.70;;;22.10;99.90;;;;;;6154895;23;20468;-68
2021/08/07 09:59:53;;;;;;;540.92;496.60;;;22.10;99.90;;;;;;6164931;23;20851;-68
2021/08/07 10:02:26;;;;;;;18.47;17.73;;;22.20;99.90;;;;;;6154665;23;20193;-68
2021/08/07 10:04:59;;;;;;;19.43;18.63;;;22.30;99.90;;;;;;6155128;23;20415;-68
2021/08/07 10:07:29;;;;;;;13.13;12.53;;;22.40;99.90;;;;;;6154709;23;20503;-68
2021/08/07 10:10:21;;;;;;;76.47;73.03;;;22.40;99.90;;;;;;6154716;23;20415;-68
2021/08/07 10:12:55;;;;;;;26.23;25.13;;;22.50;99.90;;;;;;6154715;23;20432;-68
2021/08/07 10:15:50;;;;;;;18.67;17.70;;;22.50;99.90;;;;;;6154988;23;20423;-68
2021/08/07 10:18:19;;;;;;;15.87;15.07;;;22.50;99.90;;;;;;6165709;23;20433;-68
2021/08/07 10:20:50;;;;;;;34.50;33.07;;;22.40;99.90;;;;;;6154393;23;20775;-68
2021/08/07 10:23:18;;;;;;;27.97;26.77;;;22.40;99.90;;;;;;6154046;23;20440;-68
2021/08/07 10:25:48;;;;;;;327.80;305.92;;;22.40;99.90;;;;;;6152808;23;20445;-68
2021/08/07 10:28:18;;;;;;;13.20;12.30;;;22.40;99.90;;;;;;6154287;23;20173;-68
2021/08/07 10:30:47;;;;;;;16.17;15.30;;;22.40;99.90;;;;;;6154308;23;20495;-68
2021/08/07 10:33:17;;;;;;;37.53;35.87;;;22.40;99.90;;;;;;6154081;23;20428;-69
2021/08/07 10:35:47;;;;;;;110.33;105.17;;;22.40;99.90;;;;;;6154842;23;20413;-68
2021/08/07 10:38:18;;;;;;;45.23;43.37;;;22.30;99.90;;;;;;6154066;23;20432;-68
2021/08/07 10:40:48;;;;;;;44.30;42.50;;;22.30;99.90;;;;;;6154850;23;20808;-69
2021/08/07 10:43:18;;;;;;;60.57;58.00;;;22.30;99.90;;;;;;6154194;23;20472;-68
2021/08/07 10:45:47;;;;;;;87.30;83.60;;;22.20;99.90;;;;;;6166080;23;20416;-69
2021/08/07 10:48:34;;;;;;;503.42;459.13;;;22.20;99.90;;;;;;6152865;23;20413;-69
2021/08/07 10:51:31;;;;;;;168.60;160.30;;;22.20;99.90;;;;;;6154567;23;20665;-69
2021/08/07 10:54:04;;;;;;;1048.13;715.35;;;22.10;99.90;;;;;;6164454;23;20405;-69
2021/08/07 10:56:38;;;;;;;334.90;314.10;;;22.00;99.90;;;;;;6166201;23;20154;-69
2021/08/07 10:59:27;;;;;;;562.43;507.23;;;22.00;99.90;;;;;;6155686;23;20990;-69
2021/08/07 11:01:56;;;;;;;581.30;525.87;;;21.90;99.90;;;;;;6155940;23;20515;-69
2021/08/07 11:04:28;;;;;;;633.00;568.40;;;21.90;99.90;;;;;;6154104;23;20479;-69
2021/08/07 11:07:05;;;;;;;658.67;587.13;;;22.00;99.90;;;;;;6166264;23;20781;-69
2021/08/07 11:09:37;;;;;;;785.20;623.60;;;22.00;99.90;;;;;;6165778;23;20380;-69
2021/08/07 11:12:22;;;;;;;664.83;589.47;;;22.00;99.90;;;;;;6153779;23;20817;-69
2021/08/07 11:14:52;;;;;;;695.05;602.58;;;22.00;99.90;;;;;;6165987;23;20448;-69
2021/08/07 11:17:39;;;;;;;760.67;588.20;;;22.10;99.90;;;;;;6154821;23;20199;-69
2021/08/07 11:20:36;;;;;;;578.47;524.10;;;22.10;99.90;;;;;;6156022;23;20424;-69
2021/08/07 11:23:10;;;;;;;474.67;436.93;;;22.20;99.90;;;;;;6165882;23;20420;-69
2021/08/07 11:26:04;;;;;;;516.87;471.50;;;22.20;99.90;;;;;;6165922;23;20748;-69
2021/08/07 11:28:35;;;;;;;547.40;497.87;;;22.30;99.90;;;;;;6129147;23;20491;-69
2021/08/07 11:31:29;;;;;;;506.57;467.80;;;22.30;99.90;;;;;;6155705;23;20424;-69
2021/08/07 11:34:20;;;;;;;247.17;233.97;;;22.30;99.90;;;;;;6165581;23;20440;-68
2021/08/07 11:37:16;;;;;;;267.77;253.43;;;22.30;99.90;;;;;;6166098;23;20899;-68
2021/08/07 11:40:07;;;;;;;262.10;248.37;;;22.30;99.90;;;;;;6155887;23;20475;-69
2021/08/07 11:42:39;;;;;;;1959.95;959.67;;;22.30;99.90;;;;;;6163826;23;20483;-69
2021/08/07 11:45:09;;;;;;;97.47;93.03;;;22.40;99.90;;;;;;6154043;23;20240;-69
2021/08/07 11:47:52;;;;;;;1999.90;999.90;;;22.40;99.90;;;;;;6164194;23;20405;-68
2021/08/07 11:50:21;;;;;;;45.63;43.83;;;22.50;99.90;;;;;;6167640;23;20240;-68
2021/08/07 11:52:49;;;;;;;272.33;256.83;;;22.40;99.90;;;;;;6167029;23;20877;-68
2021/08/07 11:55:18;;;;;;;373.80;349.63;;;22.40;99.90;;;;;;6155840;23;20426;-68
2021/08/07 11:57:48;;;;;;;238.83;226.27;;;22.40;99.90;;;;;;6157616;23;20458;-69
2021/08/07 12:00:25;;;;;;;263.03;249.23;;;22.30;99.90;;;;;;6156228;23;20511;-68
2021/08/07 12:03:05;;;;;;;255.57;242.70;;;22.30;99.90;;;;;;6167235;23;20451;-68
2021/08/07 12:05:35;;;;;;;319.13;301.30;;;22.30;99.90;;;;;;6167232;23;20376;-68
2021/08/07 12:08:06;;;;;;;359.90;338.30;;;22.20;99.90;;;;;;6167216;23;20396;-68
2021/08/07 12:10:36;;;;;;;775.13;639.87;;;22.20;99.90;;;;;;6166181;23;20400;-68
2021/08/07 12:13:06;;;;;;;112.63;107.63;;;22.30;99.90;;;;;;6157502;23;20479;-68
2021/08/07 12:15:34;;;;;;;266.75;251.80;;;22.40;99.90;;;;;;6166491;23;20447;-68
2021/08/07 12:18:03;;;;;;;247.17;234.33;;;22.50;99.90;;;;;;6166871;23;20475;-68
2021/08/07 12:20:31;;;;;;;302.40;283.93;;;22.50;99.90;;;;;;6167392;23;20432;-68
2021/08/07 12:23:02;;;;;;;398.83;369.80;;;22.60;99.90;;;;;;6155725;23;20451;-68
2021/08/07 12:25:31;;;;;;;260.13;246.80;;;22.60;99.90;;;;;;6155542;23;20809;-68
2021/08/07 12:28:04;;;;;;;169.33;161.27;;;22.70;99.90;;;;;;6166914;23;20397;-68